Time;durP1;ratioP1;P1;durP2;ratioP2;P2;SDS_P1;SDS_P2;PMS_P1;PMS_P2;Temp;Humidity;BMP_temperature;BMP_pressure;BME280_temperature;BME280_humidity;BME280_pressure;Samples;Min_cycle;Max_cycle;Signal;HPM_P1;HPM_P2
2022/01/28 00:00:30;;;;;;;27.20;17.63;;;;;;;-4.83;79.07;93149.81;4925242;29;20229;-82
2022/01/28 00:03:06;;;;;;;22.13;15.40;;;;;;;-4.95;79.79;93162.16;4927765;29;20220;-82
2022/01/28 00:05:33;;;;;;;20.13;14.80;;;;;;;-4.82;78.71;93148.06;4926202;29;20226;-82
2022/01/28 00:07:59;;;;;;;30.83;19.10;;;;;;;-4.92;79.46;93151.63;4925090;29;20218;-83
2022/01/28 00:10:26;;;;;;;34.70;20.50;;;;;;;-4.83;79.49;93157.47;4925075;29;20245;-83
2022/01/28 00:15:28;;;;;;;29.50;18.83;;;;;;;-5.02;79.76;93133.28;4926087;29;20243;-82
2022/01/28 00:20:59;;;;;;;30.33;18.70;;;;;;;-5.26;80.00;93102.94;4926781;29;20229;-82
2022/01/28 00:39:25;;;;;;;19.40;16.17;;;;;;;-5.12;78.50;93114.91;4920940;29;20248;-84
2022/01/28 00:41:50;;;;;;;27.90;16.90;;;;;;;-4.98;78.72;93151.56;4925782;29;20186;-82
2022/01/28 00:44:16;;;;;;;32.97;18.30;;;;;;;-5.05;78.85;93146.38;4923156;29;20241;-82
2022/01/28 00:46:41;;;;;;;30.53;17.77;;;;;;;-5.52;80.36;93099.19;4926557;29;20198;-82
2022/01/28 00:49:07;;;;;;;29.20;16.47;;;;;;;-5.06;80.13;93133.81;4923640;29;20226;-82
2022/01/28 00:51:32;;;;;;;19.33;14.93;;;;;;;-5.38;80.65;93114.50;4924361;29;20203;-82
2022/01/28 00:53:58;;;;;;;16.10;14.47;;;;;;;-5.28;79.83;93117.63;4923444;29;20230;-82
2022/01/28 00:56:23;;;;;;;16.63;13.63;;;;;;;-5.24;79.09;93100.25;4923833;29;20199;-82
2022/01/28 00:58:49;;;;;;;17.97;15.57;;;;;;;-5.16;79.33;93123.88;4921865;29;20229;-84
2022/01/28 01:01:14;;;;;;;22.00;16.13;;;;;;;-5.39;79.14;93084.16;4924639;29;20203;-82
2022/01/28 01:03:40;;;;;;;26.30;17.37;;;;;;;-5.33;80.08;93102.06;4923407;29;20218;-83
2022/01/28 01:06:05;;;;;;;22.87;17.67;;;;;;;-5.19;80.96;93114.03;4925516;29;20221;-82
2022/01/28 01:08:31;;;;;;;22.57;17.23;;;;;;;-4.91;80.72;93121.88;4925781;29;20290;-82
2022/01/28 01:10:57;;;;;;;32.43;20.73;;;;;;;-5.12;80.44;93086.16;4925538;29;20249;-83
2022/01/28 01:13:22;;;;;;;26.07;18.60;;;;;;;-5.06;79.75;93093.88;4923097;29;20195;-84
2022/01/28 01:15:53;;;;;;;24.73;17.10;;;;;;;-4.98;79.60;93109.06;4923011;29;20230;-83
2022/01/28 01:23:26;;;;;;;34.70;21.50;;;;;;;-5.10;79.82;93092.63;4904941;29;20285;-84
2022/01/28 01:26:11;;;;;;;29.93;20.33;;;;;;;-5.05;78.40;93090.38;4905394;29;20289;-83
2022/01/28 01:28:39;;;;;;;28.07;18.30;;;;;;;-5.49;79.35;93037.81;4924832;29;20762;-81
2022/01/28 01:31:08;;;;;;;45.17;24.73;;;;;;;-5.07;79.11;93084.66;4923029;29;20191;-82
2022/01/28 01:33:43;;;;;;;50.10;28.87;;;;;;;-5.23;79.85;93084.03;4924575;29;20205;-83
2022/01/28 01:36:09;;;;;;;32.00;22.10;;;;;;;-5.10;79.48;93076.56;4924037;29;20190;-84
2022/01/28 01:38:38;;;;;;;35.70;25.40;;;;;;;-5.32;80.68;93062.16;4920833;29;20203;-83
2022/01/28 01:41:07;;;;;;;31.27;21.13;;;;;;;-5.09;80.18;93058.59;4922247;29;20258;-84
2022/01/28 01:53:59;;;;;;;26.97;19.80;;;;;;;-4.93;79.45;93044.13;4922250;29;20244;-83
2022/01/28 01:56:25;;;;;;;31.07;18.33;;;;;;;-5.12;79.21;93030.94;4922113;29;20219;-83
2022/01/28 01:58:52;;;;;;;29.30;18.63;;;;;;;-5.42;80.38;92996.28;4924786;29;20192;-83
2022/01/28 02:01:17;;;;;;;35.57;23.10;;;;;;;-5.05;79.07;93054.75;4919027;29;20274;-83
2022/01/28 02:03:43;;;;;;;21.17;17.73;;;;;;;-4.95;79.25;93060.34;4905203;29;20233;-84
2022/01/28 02:06:09;;;;;;;26.73;18.73;;;;;;;-5.03;79.01;93046.94;4925237;29;20199;-83
2022/01/28 02:08:35;;;;;;;23.73;19.27;;;;;;;-5.10;79.48;93053.66;4925542;29;20218;-83
2022/01/28 02:11:01;;;;;;;23.27;18.80;;;;;;;-5.05;79.69;93061.59;4924277;29;20267;-84
2022/01/28 02:13:29;;;;;;;27.73;19.60;;;;;;;-5.38;79.14;93004.34;4922553;29;20269;-84
2022/01/28 02:15:57;;;;;;;37.30;23.07;;;;;;;-5.04;78.47;93053.78;4919536;29;20613;-84
2022/01/28 02:18:23;;;;;;;34.77;24.00;;;;;;;-5.10;78.74;93039.19;4923114;29;20206;-84
2022/01/28 02:20:51;;;;;;;30.70;24.67;;;;;;;-5.11;79.13;93035.09;4920514;29;20229;-84
2022/01/28 02:23:20;;;;;;;29.27;21.67;;;;;;;-5.27;80.35;93026.81;4923912;29;20206;-82
2022/01/28 02:25:45;;;;;;;35.53;23.33;;;;;;;-5.38;79.32;92997.50;4921227;29;20226;-84
2022/01/28 02:28:14;;;;;;;30.23;19.60;;;;;;;-6.15;79.11;92870.88;4924302;29;20186;-84
2022/01/28 02:30:39;;;;;;;24.87;17.73;;;;;;;-5.10;79.17;93018.03;4919454;29;20230;-83
2022/01/28 02:33:14;;;;;;;26.87;19.77;;;;;;;-5.55;80.63;92980.81;4924215;29;20254;-84
2022/01/28 02:35:44;;;;;;;27.47;19.30;;;;;;;-5.05;80.20;93024.22;4905331;29;20235;-84
2022/01/28 02:38:11;;;;;;;31.13;19.33;;;;;;;-5.10;79.47;93021.38;4922202;29;20189;-83
2022/01/28 02:40:39;;;;;;;32.97;19.00;;;;;;;-5.38;79.60;92966.97;4921906;29;20232;-84
2022/01/28 02:43:32;;;;;;;23.03;17.40;;;;;;;-5.06;79.93;93021.84;4920078;29;20207;-79
2022/01/28 02:45:53;;;;;;;27.07;19.07;;;;;;;-5.12;80.15;93027.63;4918810;29;20210;-83
2022/01/28 02:48:22;;;;;;;27.90;18.73;;;;;;;-5.50;80.16;92973.47;4920085;29;20218;-84
2022/01/28 02:53:22;;;;;;;21.00;15.80;;;;;;;-5.31;80.61;93008.56;4920523;29;20205;-85
2022/01/28 02:55:48;;;;;;;22.37;17.00;;;;;;;-5.08;79.70;93028.84;4922858;29;20238;-85
2022/01/28 02:58:22;;;;;;;22.97;17.67;;;;;;;-5.29;80.15;93029.53;4920993;29;20200;-85
2022/01/28 03:00:49;;;;;;;26.43;16.63;;;;;;;-5.71;80.88;92932.66;4902822;29;20261;-84
2022/01/28 03:03:18;;;;;;;19.97;15.77;;;;;;;-5.19;79.30;92991.91;4922472;29;20218;-84
2022/01/28 03:05:44;;;;;;;17.97;16.10;;;;;;;-5.42;79.08;92940.34;4921660;29;20227;-85
2022/01/28 03:08:10;;;;;;;23.40;15.83;;;;;;;-5.10;79.96;93003.56;4921570;29;20226;-84
2022/01/28 03:16:16;;;;;;;26.60;16.77;;;;;;;-5.26;80.75;92968.13;4921963;29;20257;-84
2022/01/28 03:18:55;;;;;;;21.53;17.83;;;;;;;-5.24;81.00;92984.00;4919510;29;20214;-84
2022/01/28 03:21:40;;;;;;;20.87;17.50;;;;;;;-4.66;79.15;92983.19;4924120;29;20289;-83
2022/01/28 03:24:07;;;;;;;21.47;16.37;;;;;;;-5.26;80.82;92940.13;4917402;29;20290;-84
2022/01/28 03:26:33;;;;;;;18.90;14.70;;;;;;;-4.65;79.14;92973.78;4939205;29;20202;-84
2022/01/28 03:28:58;;;;;;;21.63;15.20;;;;;;;-4.79;78.21;92939.72;4921572;29;20234;-85
2022/01/28 03:31:24;;;;;;;16.47;13.17;;;;;;;-5.05;78.64;92904.59;4922703;29;20195;-84
2022/01/28 03:33:50;;;;;;;24.37;16.00;;;;;;;-5.06;79.30;92917.50;4921253;29;20195;-84
2022/01/28 03:36:15;;;;;;;24.93;17.30;;;;;;;-4.85;78.48;92953.19;4923437;29;20202;-85
2022/01/28 03:38:42;;;;;;;29.90;18.40;;;;;;;-4.62;78.24;92996.34;4923543;29;20190;-84
2022/01/28 03:41:15;;;;;;;26.07;18.07;;;;;;;-4.70;79.48;92988.81;4922325;29;20178;-85
2022/01/28 03:43:40;;;;;;;33.90;21.83;;;;;;;-4.71;78.99;92960.00;4920841;29;20230;-84
2022/01/28 03:46:06;;;;;;;40.30;23.83;;;;;;;-5.18;78.54;92896.00;4922048;29;20187;-83
2022/01/28 03:48:31;;;;;;;30.77;21.73;;;;;;;-5.26;79.67;92914.69;4921647;29;20197;-82
2022/01/28 03:50:57;;;;;;;28.33;20.77;;;;;;;-5.56;81.47;92908.06;4925025;29;20212;-84
2022/01/28 03:53:22;;;;;;;32.20;21.57;;;;;;;-5.78;81.89;92865.72;4922132;29;20423;-84
2022/01/28 03:55:51;;;;;;;26.93;17.20;;;;;;;-4.99;78.99;92952.25;4919688;29;20370;-84
2022/01/28 03:58:16;;;;;;;24.23;16.73;;;;;;;-5.17;79.52;92933.97;4935507;29;20199;-85
2022/01/28 04:00:42;;;;;;;26.40;17.43;;;;;;;-5.73;78.99;92845.66;4923233;29;20277;-85
2022/01/28 04:03:22;;;;;;;27.47;18.63;;;;;;;-5.12;79.12;92959.69;4925346;29;20222;-85
2022/01/28 04:13:54;;;;;;;28.13;16.63;;;;;;;-5.06;79.00;92928.44;4922081;29;20260;-84
2022/01/28 04:18:46;;;;;;;20.70;15.63;;;;;;;-5.52;78.46;92852.53;4927488;29;20266;-84
2022/01/28 04:21:12;;;;;;;28.43;17.00;;;;;;;-5.08;78.07;92925.31;4926570;29;20207;-84
2022/01/28 04:23:37;;;;;;;23.83;16.80;;;;;;;-5.48;78.32;92907.94;4924724;29;20225;-84
2022/01/28 04:26:03;;;;;;;23.80;15.67;;;;;;;-6.03;78.55;92780.56;4907849;29;20226;-83
2022/01/28 04:28:29;;;;;;;25.53;16.30;;;;;;;-5.10;79.91;92955.22;4925511;29;20183;-83
2022/01/28 04:30:54;;;;;;;27.63;19.60;;;;;;;-5.04;80.38;92969.00;4925845;29;20230;-83
2022/01/28 04:33:20;;;;;;;36.73;21.37;;;;;;;-5.46;80.11;92874.72;4927066;29;20201;-84
2022/01/28 04:35:48;;;;;;;25.43;17.43;;;;;;;-5.23;78.86;92908.47;4924007;29;20237;-84
2022/01/28 04:41:08;;;;;;;22.70;16.37;;;;;;;-4.85;79.33;92962.56;4925833;29;20254;-84
2022/01/28 04:43:44;;;;;;;24.27;15.73;;;;;;;-5.22;79.97;92926.13;4924693;29;20233;-83
2022/01/28 04:48:53;;;;;;;16.67;14.07;;;;;;;-5.16;80.45;92935.59;4926273;29;20657;-84
2022/01/28 05:14:51;;;;;;;30.07;17.23;;;;;;;-5.48;81.07;92963.13;4925337;29;20322;-85
2022/01/28 05:27:55;;;;;;;25.70;16.60;;;;;;;-5.16;77.24;92942.41;4923256;29;20209;-77
2022/01/28 05:30:20;;;;;;;27.20;16.80;;;;;;;-5.78;78.66;92867.44;4923454;29;20264;-80
2022/01/28 05:32:46;;;;;;;28.10;18.40;;;;;;;-5.40;78.41;92928.22;4924609;29;20190;-76
2022/01/28 05:35:11;;;;;;;34.63;18.97;;;;;;;-5.35;78.79;92945.47;4926909;29;20285;-81
2022/01/28 05:37:37;;;;;;;30.50;18.43;;;;;;;-5.83;78.15;92844.34;4925700;29;20199;-83
2022/01/28 05:40:03;;;;;;;27.57;16.93;;;;;;;-5.24;80.52;92978.91;4925968;29;20219;-81
2022/01/28 05:42:28;;;;;;;27.50;17.53;;;;;;;-5.39;79.61;92934.91;4926139;29;20237;-78
2022/01/28 05:44:54;;;;;;;27.97;17.20;;;;;;;-5.06;79.09;92964.06;4922327;29;20225;-79
2022/01/28 05:47:21;;;;;;;38.60;17.70;;;;;;;-5.24;79.63;92976.38;4927757;29;20186;-80
2022/01/28 05:49:46;;;;;;;36.37;19.17;;;;;;;-5.40;79.98;92979.06;4922738;29;20238;-84
2022/01/28 05:52:12;;;;;;;22.97;16.17;;;;;;;-5.44;79.73;92949.09;4920967;29;20230;-79
2022/01/28 05:54:37;;;;;;;22.83;17.47;;;;;;;-5.31;78.78;92972.16;4924591;29;20242;-82
2022/01/28 05:57:03;;;;;;;22.43;17.43;;;;;;;-5.28;78.34;92947.19;4921806;29;20222;-82
2022/01/28 05:59:30;;;;;;;26.80;17.00;;;;;;;-5.27;78.66;92973.38;4924775;29;20230;-86
2022/01/28 06:01:56;;;;;;;27.77;18.10;;;;;;;-5.19;79.26;92980.94;4924817;29;20198;-83
2022/01/28 06:04:22;;;;;;;26.20;17.83;;;;;;;-5.66;79.88;92943.09;4922084;29;20221;-80
2022/01/28 06:06:47;;;;;;;18.57;15.17;;;;;;;-5.30;79.12;92938.94;4924572;29;20775;-79
2022/01/28 06:09:13;;;;;;;23.10;16.73;;;;;;;-4.97;79.25;92965.59;4923416;29;20267;-81
2022/01/28 06:11:39;;;;;;;31.27;17.20;;;;;;;-4.90;78.71;92987.78;4925829;29;20182;-82
2022/01/28 06:14:04;;;;;;;23.37;17.37;;;;;;;-5.15;79.55;92967.69;4924892;29;20245;-83
2022/01/28 06:16:30;;;;;;;31.40;18.53;;;;;;;-4.85;78.07;92971.00;4921071;29;20194;-82
2022/01/28 06:18:55;;;;;;;29.40;18.17;;;;;;;-5.32;79.51;92940.84;4920186;29;20330;-81
2022/01/28 06:21:20;;;;;;;29.37;18.83;;;;;;;-5.15;80.21;92962.59;4919404;29;20230;-81
2022/01/28 06:23:46;;;;;;;31.40;19.63;;;;;;;-4.64;78.21;92981.25;4924015;29;22835;-81
2022/01/28 06:26:11;;;;;;;30.80;19.53;;;;;;;-4.61;77.45;92982.63;4919789;29;20234;-82
2022/01/28 06:28:37;;;;;;;38.13;21.10;;;;;;;-4.38;77.31;93011.31;4923838;29;20286;-82
2022/01/28 06:31:02;;;;;;;36.47;21.43;;;;;;;-4.70;80.17;93019.38;4922235;29;20202;-83
2022/01/28 06:33:28;;;;;;;31.87;20.90;;;;;;;-4.61;78.41;92970.69;4924342;29;20210;-82
2022/01/28 06:35:54;;;;;;;50.60;24.03;;;;;;;-4.19;77.54;93016.63;4922862;29;20288;-83
2022/01/28 06:38:19;;;;;;;45.47;22.70;;;;;;;-4.60;78.49;92984.19;4923869;29;20614;-83
2022/01/28 06:40:45;;;;;;;41.87;23.50;;;;;;;-4.30;78.02;93013.75;4922129;29;20279;-83
2022/01/28 06:43:12;;;;;;;45.07;23.03;;;;;;;-4.27;78.34;93008.28;4922611;29;21105;-83
2022/01/28 06:45:41;;;;;;;36.23;21.20;;;;;;;-4.22;76.86;92991.50;4919992;29;20286;-82
2022/01/28 06:48:10;;;;;;;29.40;19.70;;;;;;;-4.17;77.92;93012.13;4922346;29;20224;-85
2022/01/28 06:50:42;;;;;;;33.93;22.67;;;;;;;-4.09;77.62;92999.25;4924726;29;20229;-85
2022/01/28 06:53:07;;;;;;;36.27;22.27;;;;;;;-3.91;76.94;92981.81;4920488;29;20191;-83
2022/01/28 06:55:33;;;;;;;32.40;21.80;;;;;;;-4.05;78.21;92987.75;4922235;29;20339;-83
2022/01/28 07:00:27;;;;;;;28.87;19.27;;;;;;;-3.82;78.62;92990.91;5072998;27;20610;-83
2022/01/28 07:02:52;;;;;;;40.10;22.50;;;;;;;-3.70;78.83;92991.19;5067112;28;20190;-82
2022/01/28 07:05:18;;;;;;;32.50;20.30;;;;;;;-3.53;77.11;93007.78;5065976;28;20210;-82
2022/01/28 07:07:46;;;;;;;34.77;24.07;;;;;;;-3.54;77.76;93018.97;5066323;28;20211;-82
2022/01/28 07:10:11;;;;;;;41.17;22.73;;;;;;;-3.19;76.68;93022.41;5065270;28;20225;-82
2022/01/28 07:12:37;;;;;;;40.30;26.33;;;;;;;-3.28;80.41;93026.06;5066244;28;20209;-83
2022/01/28 07:15:03;;;;;;;38.13;25.80;;;;;;;-3.07;76.13;93026.81;5066256;28;20229;-83
2022/01/28 07:17:29;;;;;;;40.67;24.90;;;;;;;-3.13;75.91;93030.09;5066545;28;20212;-86
2022/01/28 07:19:54;;;;;;;36.03;24.00;;;;;;;-3.46;76.43;93013.75;5063711;28;20229;-87
2022/01/28 07:22:19;;;;;;;37.13;24.20;;;;;;;-3.53;77.70;93023.91;5067078;28;20200;-88
2022/01/28 07:24:45;;;;;;;40.17;23.33;;;;;;;-3.18;76.49;93027.31;5066625;28;20296;-81
2022/01/28 07:27:10;;;;;;;31.10;21.50;;;;;;;-3.05;76.47;93044.50;5062825;28;20190;-81
2022/01/28 07:29:36;;;;;;;32.43;22.50;;;;;;;-2.96;76.75;93040.81;5064648;28;20229;-81
2022/01/28 07:32:02;;;;;;;42.70;22.50;;;;;;;-2.61;74.17;93037.25;5065024;28;20192;-83
2022/01/28 07:34:27;;;;;;;34.90;22.67;;;;;;;-2.55;74.82;93039.09;5065210;28;20332;-82
2022/01/28 07:36:53;;;;;;;37.67;23.17;;;;;;;-2.57;73.58;93034.16;5064721;28;20186;-83
2022/01/28 07:39:19;;;;;;;39.13;23.73;;;;;;;-2.86;74.55;93023.41;5064074;28;20286;-83
2022/01/28 07:41:45;;;;;;;38.37;25.37;;;;;;;-2.90;75.60;93020.41;5065294;28;20659;-80
2022/01/28 07:44:10;;;;;;;39.17;24.37;;;;;;;-3.30;75.31;92972.66;5064421;28;20241;-79
2022/01/28 07:46:36;;;;;;;35.13;23.33;;;;;;;-2.67;75.16;93041.38;5063282;28;20212;-80
2022/01/28 07:49:02;;;;;;;36.50;23.40;;;;;;;-2.63;75.51;93062.22;5063586;28;20251;-81
2022/01/28 07:51:28;;;;;;;38.47;22.47;;;;;;;-2.61;75.06;93040.63;5064425;28;20205;-79
2022/01/28 07:53:53;;;;;;;33.03;23.10;;;;;;;-2.53;75.36;93070.34;5064609;28;20225;-79
2022/01/28 07:56:20;;;;;;;34.93;23.97;;;;;;;-2.73;75.29;93054.09;5063760;28;20220;-80
2022/01/28 07:58:46;;;;;;;36.83;24.60;;;;;;;-2.26;74.62;93082.28;5064773;28;20233;-78
2022/01/28 08:01:11;;;;;;;45.67;24.03;;;;;;;-2.22;74.15;93089.38;5062883;28;20186;-80
2022/01/28 08:03:37;;;;;;;35.03;25.17;;;;;;;-2.42;74.13;93065.50;5064967;28;20198;-79
2022/01/28 08:06:02;;;;;;;40.20;26.37;;;;;;;-2.08;73.84;93088.44;5063288;28;20186;-81
2022/01/28 08:08:28;;;;;;;34.77;22.70;;;;;;;-1.95;73.38;93073.16;5063400;28;20193;-80
2022/01/28 08:10:53;;;;;;;31.60;21.97;;;;;;;-1.63;72.29;93087.00;5055523;28;20218;-82
2022/01/28 08:13:19;;;;;;;29.20;19.43;;;;;;;-1.48;71.70;93084.28;5049110;28;20194;-78
2022/01/28 08:15:44;;;;;;;27.60;19.37;;;;;;;-1.48;72.11;93053.56;5050086;28;20217;-76
2022/01/28 08:18:11;;;;;;;30.20;20.53;;;;;;;-1.22;70.77;93058.69;5046251;28;20190;-74
2022/01/28 08:20:37;;;;;;;29.23;21.00;;;;;;;-1.49;70.35;93005.94;5049000;28;20214;-75
2022/01/28 08:23:04;;;;;;;25.87;20.27;;;;;;;-1.18;70.84;93049.66;5051422;28;20201;-77
2022/01/28 08:25:32;;;;;;;30.03;21.70;;;;;;;-1.16;70.69;93047.66;5049446;28;20221;-76
2022/01/28 08:27:58;;;;;;;31.80;22.07;;;;;;;-1.18;70.11;93052.97;5049763;28;20213;-76
2022/01/28 08:30:25;;;;;;;36.80;21.90;;;;;;;-0.89;69.39;93044.13;5034070;28;20241;-76
2022/01/28 08:32:52;;;;;;;31.40;22.70;;;;;;;-0.82;68.98;93032.88;5029241;28;20183;-77
2022/01/28 08:35:23;;;;;;;28.40;20.17;;;;;;;-0.56;67.72;93022.56;5031827;28;20294;-76
2022/01/28 08:37:49;;;;;;;41.17;24.17;;;;;;;-0.54;68.30;93015.44;5029009;28;20245;-85
2022/01/28 08:40:16;;;;;;;36.43;22.80;;;;;;;-0.39;67.50;93013.41;5044130;28;20277;-85
2022/01/28 08:42:41;;;;;;;29.10;18.20;;;;;;;-0.54;66.72;93037.72;5051763;28;20205;-86
2022/01/28 08:45:07;;;;;;;35.13;21.83;;;;;;;-0.32;66.45;93026.22;5050094;28;20218;-80
2022/01/28 08:47:33;;;;;;;30.30;20.83;;;;;;;-0.24;65.34;93021.69;5050750;28;20193;-82
2022/01/28 08:49:58;;;;;;;34.77;22.03;;;;;;;0.44;64.87;93030.41;5048717;28;20222;-82
2022/01/28 08:52:24;;;;;;;34.40;21.53;;;;;;;0.25;63.44;93013.31;5051078;28;20194;-81
2022/01/28 08:54:49;;;;;;;29.57;21.57;;;;;;;0.70;63.07;93073.88;5049725;28;20224;-81
2022/01/28 08:57:14;;;;;;;35.40;21.57;;;;;;;0.38;63.79;93064.59;5050305;28;20253;-80
2022/01/28 08:59:42;;;;;;;33.93;22.10;;;;;;;-0.01;64.42;93023.72;5048536;28;20336;-79
2022/01/28 09:02:08;;;;;;;30.80;19.80;;;;;;;0.22;64.53;93059.19;5047085;28;20186;-79
2022/01/28 09:04:34;;;;;;;29.87;21.30;;;;;;;0.10;64.49;93074.41;5049443;28;20247;-79
2022/01/28 09:06:59;;;;;;;33.33;22.37;;;;;;;-0.27;64.96;93034.91;5048630;28;20191;-79
2022/01/28 09:09:25;;;;;;;40.03;22.00;;;;;;;-0.07;64.92;93051.00;5050048;28;20240;-83
2022/01/28 09:12:07;;;;;;;36.03;22.57;;;;;;;0.17;65.43;93062.34;5048911;28;20221;-82
2022/01/28 09:14:33;;;;;;;33.40;21.83;;;;;;;0.71;63.60;93070.34;5047842;28;20280;-82
2022/01/28 09:16:58;;;;;;;41.97;23.63;;;;;;;0.78;62.93;93065.16;5048883;28;20254;-76
2022/01/28 09:19:24;;;;;;;34.97;24.67;;;;;;;0.73;62.78;93065.00;5047901;28;20226;-76
2022/01/28 09:21:50;;;;;;;33.50;22.77;;;;;;;0.41;63.34;93038.50;5049382;28;20190;-76
2022/01/28 09:24:16;;;;;;;35.07;23.00;;;;;;;0.68;62.80;93050.22;5043319;28;20245;-76
2022/01/28 09:26:42;;;;;;;41.07;24.37;;;;;;;0.74;62.88;93059.66;5031513;28;20183;-76
2022/01/28 09:29:07;;;;;;;32.27;23.90;;;;;;;0.70;62.91;93062.84;5029715;28;20290;-76
2022/01/28 09:31:33;;;;;;;33.07;22.87;;;;;;;0.72;62.56;93071.09;5029618;28;20186;-77
2022/01/28 09:33:58;;;;;;;33.23;23.53;;;;;;;0.62;61.60;93047.69;5033073;28;20257;-76
2022/01/28 09:36:24;;;;;;;40.83;22.30;;;;;;;0.96;62.24;93070.38;5049349;28;20213;-76
2022/01/28 09:38:50;;;;;;;40.60;23.27;;;;;;;1.56;61.30;93095.38;5048552;28;20289;-76
2022/01/28 09:41:16;;;;;;;37.60;22.87;;;;;;;2.03;58.92;93099.03;5049573;28;20202;-76
2022/01/28 09:43:46;;;;;;;38.03;22.77;;;;;;;1.59;59.60;93090.59;5047848;28;20250;-76
2022/01/28 09:46:13;;;;;;;34.37;22.50;;;;;;;2.03;58.20;93099.03;5048771;28;20228;-77
2022/01/28 09:48:39;;;;;;;36.67;23.07;;;;;;;2.13;58.82;93083.91;5047750;28;20204;-84
2022/01/28 09:51:05;;;;;;;38.37;24.10;;;;;;;2.17;58.95;93092.75;5050787;28;20189;-76
2022/01/28 09:53:31;;;;;;;37.27;24.90;;;;;;;2.54;57.44;93087.34;5048354;28;20217;-75
2022/01/28 09:55:58;;;;;;;38.13;24.67;;;;;;;2.65;56.60;93057.44;5047404;28;20237;-75
2022/01/28 09:58:24;;;;;;;35.13;23.97;;;;;;;2.97;55.15;93064.72;5048434;28;20245;-76
2022/01/28 10:00:50;;;;;;;35.70;24.40;;;;;;;2.94;55.88;93077.28;5046448;28;20226;-75
2022/01/28 10:03:17;;;;;;;39.43;25.10;;;;;;;2.97;56.58;93072.44;5049400;28;20198;-76
2022/01/28 10:05:43;;;;;;;44.73;24.93;;;;;;;2.81;55.81;93049.09;5047195;28;20218;-83
2022/01/28 10:08:21;;;;;;;40.77;25.13;;;;;;;2.66;55.60;93046.16;5048715;28;20212;-84
2022/01/28 10:10:50;;;;;;;44.80;25.97;;;;;;;2.67;57.14;93063.97;5046544;28;20226;-85
2022/01/28 10:13:26;;;;;;;48.47;26.57;;;;;;;2.56;56.49;93062.13;5048792;28;20206;-82
2022/01/28 10:16:06;;;;;;;45.53;28.83;;;;;;;2.72;56.76;93096.81;5047587;28;20231;-84
2022/01/28 10:18:55;;;;;;;50.00;27.53;;;;;;;3.02;56.56;93102.72;5049028;28;20217;-82
2022/01/28 10:21:29;;;;;;;43.47;26.53;;;;;;;3.15;56.80;93102.53;5045456;28;20206;-76
2022/01/28 10:24:18;;;;;;;47.93;28.80;;;;;;;3.28;55.55;93105.69;5047886;28;20224;-77
2022/01/28 10:27:06;;;;;;;43.40;26.97;;;;;;;3.28;55.74;93092.78;5047983;28;20260;-80
2022/01/28 10:29:43;;;;;;;43.30;27.37;;;;;;;3.05;56.11;93092.00;5046188;28;20270;-82
2022/01/28 10:32:14;;;;;;;40.67;26.00;;;;;;;2.83;56.34;93065.13;5045834;28;20225;-85
2022/01/28 10:34:47;;;;;;;43.90;27.63;;;;;;;2.88;56.43;93070.44;5046677;28;20226;-84
2022/01/28 10:37:17;;;;;;;45.77;27.73;;;;;;;2.58;58.20;93087.69;5049601;28;20182;-85
2022/01/28 10:39:44;;;;;;;47.50;29.50;;;;;;;2.33;59.48;93087.00;5062791;28;20233;-81
2022/01/28 10:42:31;;;;;;;41.67;29.07;;;;;;;2.42;59.06;93101.97;5048259;28;20194;-86
2022/01/28 10:45:09;;;;;;;47.17;29.83;;;;;;;2.44;59.05;93094.00;5044404;28;20249;-81
2022/01/28 10:47:43;;;;;;;45.13;28.47;;;;;;;2.02;59.58;93066.59;5046990;28;20216;-82
2022/01/28 10:50:15;;;;;;;50.83;28.87;;;;;;;2.38;59.17;93105.97;5046779;28;20226;-83
2022/01/28 10:52:41;;;;;;;48.87;27.43;;;;;;;2.53;59.64;93111.53;5047873;28;20194;-80
2022/01/28 10:55:07;;;;;;;50.07;31.17;;;;;;;2.30;58.41;93072.00;5045194;28;20210;-81
2022/01/28 10:57:32;;;;;;;50.60;31.63;;;;;;;2.52;58.90;93083.41;5050048;28;20220;-83
2022/01/28 10:59:58;;;;;;;57.40;32.23;;;;;;;2.68;59.23;93065.53;5045611;28;20229;-81
2022/01/28 11:02:25;;;;;;;51.90;31.83;;;;;;;3.04;58.10;93106.66;5047875;28;20178;-85
2022/01/28 11:04:53;;;;;;;50.03;31.73;;;;;;;2.89;57.41;93090.03;5048077;28;20289;-78
2022/01/28 11:07:18;;;;;;;63.03;36.50;;;;;;;2.90;57.80;93100.13;5046224;28;20202;-79
2022/01/28 11:09:46;;;;;;;58.20;35.50;;;;;;;3.22;58.21;93098.09;5047647;28;20264;-78
2022/01/28 11:12:12;;;;;;;61.80;37.33;;;;;;;3.43;57.92;93079.47;5047386;28;20197;-78
2022/01/28 11:14:37;;;;;;;56.17;35.10;;;;;;;3.56;57.29;93099.91;5047006;28;20229;-78
2022/01/28 11:17:03;;;;;;;65.53;37.23;;;;;;;3.68;56.13;93082.63;5046543;28;20205;-78
2022/01/28 11:19:33;;;;;;;66.27;38.73;;;;;;;3.84;55.36;93081.94;5047244;28;20218;-78
2022/01/28 11:22:44;;;;;;;68.10;39.60;;;;;;;3.65;56.37;93085.66;5048274;28;20333;-82
2022/01/28 11:25:28;;;;;;;55.07;38.13;;;;;;;3.65;55.86;93079.69;5045918;28;20225;-84
2022/01/28 11:27:54;;;;;;;62.17;38.63;;;;;;;3.24;56.22;93039.28;5047139;28;21161;-80
2022/01/28 11:30:25;;;;;;;69.07;40.00;;;;;;;3.27;56.68;93069.81;5047813;28;20230;-80
2022/01/28 11:33:05;;;;;;;72.53;42.67;;;;;;;3.27;57.32;93069.81;5048852;28;20201;-85
2022/01/28 11:35:39;;;;;;;65.30;41.30;;;;;;;3.48;57.64;93081.38;5048466;28;20253;-80
2022/01/28 11:38:29;;;;;;;61.93;37.60;;;;;;;3.71;57.37;93078.78;5047270;28;20195;-84
2022/01/28 11:41:07;;;;;;;48.53;32.67;;;;;;;3.89;58.89;93060.63;5046128;28;20242;-82
2022/01/28 11:43:34;;;;;;;44.40;31.60;;;;;;;3.89;57.94;93079.44;5047108;28;20210;-83
2022/01/28 11:46:07;;;;;;;50.73;30.87;;;;;;;3.95;57.93;93078.56;5048427;28;20190;-82
2022/01/28 11:48:51;;;;;;;30.97;24.10;;;;;;;4.02;59.80;93068.88;5051043;28;20198;-84
2022/01/28 11:51:20;;;;;;;46.33;31.27;;;;;;;3.93;58.87;93053.97;5050917;28;20204;-84
2022/01/28 11:53:58;;;;;;;45.83;29.77;;;;;;;3.78;57.76;93045.91;5050148;28;20194;-83
2022/01/28 11:56:24;;;;;;;39.37;27.73;;;;;;;4.04;57.65;93066.88;5049454;28;20193;-84
2022/01/28 11:59:02;;;;;;;40.90;29.17;;;;;;;4.13;58.23;93070.66;5048615;28;20222;-80
2022/01/28 12:01:39;;;;;;;47.03;27.93;;;;;;;4.27;57.48;93061.66;5051269;28;20202;-79
2022/01/28 12:04:31;;;;;;;25.73;20.47;;;;;;;4.48;57.20;93055.84;5050395;28;20233;-79
2022/01/28 12:07:15;;;;;;;30.13;21.13;;;;;;;4.89;56.97;93065.91;5049477;28;21345;-87
2022/01/28 12:09:47;;;;;;;21.30;18.53;;;;;;;4.45;58.91;93048.53;5050589;28;20234;-84
2022/01/28 12:12:20;;;;;;;12.50;11.57;;;;;;;4.62;60.27;93056.38;5048950;28;20216;-82
2022/01/28 12:14:49;;;;;;;13.33;12.33;;;;;;;4.58;61.88;93061.22;5050772;28;20233;-84
2022/01/28 12:17:45;;;;;;;13.27;12.30;;;;;;;4.53;59.77;93055.94;5051130;28;20178;-82
2022/01/28 12:20:13;;;;;;;12.30;11.50;;;;;;;4.53;60.81;93050.78;5054524;28;20237;-82
2022/01/28 12:23:02;;;;;;;11.70;10.90;;;;;;;4.65;59.95;93059.25;5049973;28;20740;-80
2022/01/28 12:25:36;;;;;;;11.30;10.33;;;;;;;4.63;59.59;93052.75;5051547;28;20286;-83
2022/01/28 12:28:30;;;;;;;11.80;11.10;;;;;;;4.73;58.95;93060.72;5049663;28;20201;-86
2022/01/28 12:31:12;;;;;;;10.23;9.73;;;;;;;4.61;57.89;93053.00;5050090;28;20284;-81
2022/01/28 12:33:43;;;;;;;10.87;9.97;;;;;;;5.41;58.81;93057.94;5050397;28;20197;-81
2022/01/28 12:36:12;;;;;;;10.13;9.73;;;;;;;4.89;56.64;93044.41;5050494;28;20249;-80
2022/01/28 12:38:54;;;;;;;10.07;9.67;;;;;;;4.73;55.34;93024.50;5049792;28;20228;-84
2022/01/28 12:41:21;;;;;;;9.63;9.23;;;;;;;4.82;54.50;93054.13;5051086;28;20202;-81
2022/01/28 12:43:47;;;;;;;10.53;10.13;;;;;;;4.76;55.15;93042.13;5050545;28;20190;-79
2022/01/28 12:46:15;;;;;;;10.27;9.77;;;;;;;4.52;54.66;93014.81;5051806;28;20221;-80
2022/01/28 12:48:52;;;;;;;10.90;10.40;;;;;;;4.55;54.82;93017.72;5048200;28;20194;-81
2022/01/28 12:51:24;;;;;;;10.90;10.30;;;;;;;4.65;55.36;93058.50;5048219;28;20270;-80
2022/01/28 12:53:54;;;;;;;11.90;11.13;;;;;;;4.77;55.81;93051.47;5050036;28;20208;-79
2022/01/28 12:56:40;;;;;;;10.10;9.63;;;;;;;4.68;56.77;93047.69;5049361;28;20194;-83
2022/01/28 12:59:06;;;;;;;12.03;11.53;;;;;;;4.94;59.04;93052.28;5047853;28;20229;-82
2022/01/28 13:01:32;;;;;;;10.57;9.97;;;;;;;4.92;59.12;93060.25;5049351;28;20590;-82
2022/01/28 13:04:13;;;;;;;12.03;11.43;;;;;;;4.67;57.23;93052.06;5049823;28;20226;-81